sensor_id;sensor_type;location;lat;lon;timestamp;pressure;altitude;pressure_sealevel;temperature;humidity
6200;BME280;3133;43.214;27.906;2022-11-15T00:00:11;101474.94;;;9.52;100.00
6200;BME280;3133;43.214;27.906;2022-11-15T00:02:37;101480.06;;;9.49;100.00
6200;BME280;3133;43.214;27.906;2022-11-15T00:08:29;101479.00;;;9.38;100.00
6200;BME280;3133;43.214;27.906;2022-11-15T00:14:17;101474.81;;;9.46;100.00
6200;BME280;3133;43.214;27.906;2022-11-15T00:20:08;101470.59;;;9.51;100.00
6200;BME280;3133;43.214;27.906;2022-11-15T00:25:57;101449.47;;;9.36;100.00
6200;BME280;3133;43.214;27.906;2022-11-15T00:31:46;101460.72;;;9.37;100.00
6200;BME280;3133;43.214;27.906;2022-11-15T00:37:36;101460.72;;;9.37;100.00
6200;BME280;3133;43.214;27.906;2022-11-15T00:43:24;101450.31;;;9.37;100.00
6200;BME280;3133;43.214;27.906;2022-11-15T00:49:12;101449.59;;;9.42;100.00
6200;BME280;3133;43.214;27.906;2022-11-15T00:55:03;101456.53;;;9.43;100.00
6200;BME280;3133;43.214;27.906;2022-11-15T00:57:30;101429.56;;;9.38;100.00
6200;BME280;3133;43.214;27.906;2022-11-15T01:03:18;101445.41;;;9.50;100.00
6200;BME280;3133;43.214;27.906;2022-11-15T01:05:46;101396.38;;;9.28;100.00
6200;BME280;3133;43.214;27.906;2022-11-15T01:11:36;101436.66;;;9.47;100.00
6200;BME280;3133;43.214;27.906;2022-11-15T01:14:27;101433.28;;;9.52;100.00
6200;BME280;3133;43.214;27.906;2022-11-15T01:17:13;101442.16;;;9.62;100.00
6200;BME280;3133;43.214;27.906;2022-11-15T01:20:05;101440.38;;;9.61;100.00
6200;BME280;3133;43.214;27.906;2022-11-15T01:25:58;101441.19;;;9.58;100.00
6200;BME280;3133;43.214;27.906;2022-11-15T01:28:29;101439.34;;;9.51;100.00
6200;BME280;3133;43.214;27.906;2022-11-15T01:34:18;101400.91;;;9.38;100.00
6200;BME280;3133;43.214;27.906;2022-11-15T01:36:51;101432.56;;;9.59;100.00
6200;BME280;3133;43.214;27.906;2022-11-15T01:42:39;101429.63;;;9.43;100.00
6200;BME280;3133;43.214;27.906;2022-11-15T01:45:13;101428.69;;;9.39;100.00
6200;BME280;3133;43.214;27.906;2022-11-15T01:51:05;101438.25;;;9.40;100.00
6200;BME280;3133;43.214;27.906;2022-11-15T01:56:45;101424.47;;;9.46;100.00
6200;BME280;3133;43.214;27.906;2022-11-15T02:02:37;101419.44;;;9.53;100.00
6200;BME280;3133;43.214;27.906;2022-11-15T02:05:05;101420.25;;;9.52;100.00
6200;BME280;3133;43.214;27.906;2022-11-15T02:10:53;101421.19;;;9.56;100.00
6200;BME280;3133;43.214;27.906;2022-11-15T02:13:25;101416.03;;;9.57;100.00
6200;BME280;3133;43.214;27.906;2022-11-15T02:19:28;101405.63;;;9.57;100.00
6200;BME280;3133;43.214;27.906;2022-11-15T02:25:37;101415.06;;;9.52;100.00
6200;BME280;3133;43.214;27.906;2022-11-15T02:34:35;101412.38;;;9.49;100.00
6200;BME280;3133;43.214;27.906;2022-11-15T02:37:16;101401.06;;;9.47;100.00
6200;BME280;3133;43.214;27.906;2022-11-15T02:43:08;101373.91;;;9.33;100.00
6200;BME280;3133;43.214;27.906;2022-11-15T02:46:01;101388.91;;;9.45;100.00
6200;BME280;3133;43.214;27.906;2022-11-15T02:51:54;101400.31;;;9.51;100.00
6200;BME280;3133;43.214;27.906;2022-11-15T02:54:24;101395.81;;;9.44;100.00
6200;BME280;3133;43.214;27.906;2022-11-15T03:00:15;101396.72;;;9.46;100.00
6200;BME280;3133;43.214;27.906;2022-11-15T03:03:07;101385.50;;;9.49;100.00
6200;BME280;3133;43.214;27.906;2022-11-15T03:05:45;101384.69;;;9.53;100.00
6200;BME280;3133;43.214;27.906;2022-11-15T03:11:39;101380.31;;;9.50;100.00
6200;BME280;3133;43.214;27.906;2022-11-15T03:14:19;101382.91;;;9.50;100.00
6200;BME280;3133;43.214;27.906;2022-11-15T03:20:10;101379.19;;;9.36;100.00
6200;BME280;3133;43.214;27.906;2022-11-15T03:22:42;101382.66;;;9.37;100.00
6200;BME280;3133;43.214;27.906;2022-11-15T03:25:33;101385.31;;;9.40;100.00
6200;BME280;3133;43.214;27.906;2022-11-15T03:28:28;101378.50;;;9.46;100.00
6200;BME280;3133;43.214;27.906;2022-11-15T03:34:26;101369.09;;;9.54;100.00
6200;BME280;3133;43.214;27.906;2022-11-15T03:40:16;101363.91;;;9.56;100.00
6200;BME280;3133;43.214;27.906;2022-11-15T03:46:15;101348.50;;;9.66;100.00
6200;BME280;3133;43.214;27.906;2022-11-15T03:48:46;101348.53;;;9.71;100.00
6200;BME280;3133;43.214;27.906;2022-11-15T03:54:48;101347.81;;;9.78;100.00
6200;BME280;3133;43.214;27.906;2022-11-15T03:57:16;101347.78;;;9.76;100.00
6200;BME280;3133;43.214;27.906;2022-11-15T04:06:28;101342.31;;;9.61;100.00
6200;BME280;3133;43.214;27.906;2022-11-15T04:12:16;101348.53;;;9.69;100.00
6200;BME280;3133;43.214;27.906;2022-11-15T04:18:17;101345.91;;;9.69;100.00
6200;BME280;3133;43.214;27.906;2022-11-15T04:20:44;101347.69;;;9.70;100.00
6200;BME280;3133;43.214;27.906;2022-11-15T04:27:02;101340.72;;;9.69;100.00
6200;BME280;3133;43.214;27.906;2022-11-15T04:32:51;101341.25;;;9.50;100.00
6200;BME280;3133;43.214;27.906;2022-11-15T04:35:18;101341.34;;;9.56;100.00
6200;BME280;3133;43.214;27.906;2022-11-15T04:37:45;101338.75;;;9.56;100.00
6200;BME280;3133;43.214;27.906;2022-11-15T04:40:12;101335.88;;;9.40;100.00
6200;BME280;3133;43.214;27.906;2022-11-15T04:42:42;101332.44;;;9.42;100.00
6200;BME280;3133;43.214;27.906;2022-11-15T04:48:30;101329.84;;;9.44;100.00
6200;BME280;3133;43.214;27.906;2022-11-15T04:54:19;101328.16;;;9.46;100.00
6200;BME280;3133;43.214;27.906;2022-11-15T04:56:45;101334.03;;;9.34;100.00
6200;BME280;3133;43.214;27.906;2022-11-15T05:02:35;101333.66;;;9.14;100.00
6200;BME280;3133;43.214;27.906;2022-11-15T05:08:41;101340.53;;;9.11;100.00
6200;BME280;3133;43.214;27.906;2022-11-15T05:14:29;101329.28;;;9.12;100.00
6200;BME280;3133;43.214;27.906;2022-11-15T05:23:55;101333.06;;;9.29;100.00
6200;BME280;3133;43.214;27.906;2022-11-15T05:29:43;101340.19;;;9.39;100.00
6200;BME280;3133;43.214;27.906;2022-11-15T05:32:11;101340.25;;;9.42;100.00
6200;BME280;3133;43.214;27.906;2022-11-15T05:38:00;101340.28;;;9.44;100.00
6200;BME280;3133;43.214;27.906;2022-11-15T05:40:29;101336.66;;;9.36;100.00
6200;BME280;3133;43.214;27.906;2022-11-15T05:46:18;101339.00;;;9.22;100.00
6200;BME280;3133;43.214;27.906;2022-11-15T05:48:47;101330.81;;;9.02;100.00
6200;BME280;3133;43.214;27.906;2022-11-15T05:54:36;101307.63;;;8.28;100.00
6200;BME280;3133;43.214;27.906;2022-11-15T05:57:10;101339.91;;;8.39;100.00
6200;BME280;3133;43.214;27.906;2022-11-15T06:02:59;101334.34;;;8.24;100.00
6200;BME280;3133;43.214;27.906;2022-11-15T06:08:47;101328.38;;;8.26;100.00
6200;BME280;3133;43.214;27.906;2022-11-15T06:11:14;101340.59;;;8.32;100.00
6200;BME280;3133;43.214;27.906;2022-11-15T06:17:04;101340.72;;;8.36;100.00
6200;BME280;3133;43.214;27.906;2022-11-15T06:19:36;101343.28;;;8.35;100.00
6200;BME280;3133;43.214;27.906;2022-11-15T06:25:25;101335.81;;;8.50;100.00
6200;BME280;3133;43.214;27.906;2022-11-15T06:27:53;101337.41;;;8.43;100.00
6200;BME280;3133;43.214;27.906;2022-11-15T06:33:43;101334.25;;;8.58;100.00
6200;BME280;3133;43.214;27.906;2022-11-15T06:36:20;101333.56;;;8.67;100.00
6200;BME280;3133;43.214;27.906;2022-11-15T06:42:08;101331.38;;;8.86;100.00
6200;BME280;3133;43.214;27.906;2022-11-15T06:47:57;101329.69;;;8.90;100.00
6200;BME280;3133;43.214;27.906;2022-11-15T06:50:26;101327.75;;;8.78;100.00
6200;BME280;3133;43.214;27.906;2022-11-15T06:56:14;101329.66;;;8.87;100.00
6200;BME280;3133;43.214;27.906;2022-11-15T06:58:41;101337.91;;;9.09;100.00
6200;BME280;3133;43.214;27.906;2022-11-15T07:01:13;101334.41;;;9.09;100.00
6200;BME280;3133;43.214;27.906;2022-11-15T07:07:02;101336.97;;;9.06;100.00
6200;BME280;3133;43.214;27.906;2022-11-15T07:09:35;101344.88;;;9.12;100.00
6200;BME280;3133;43.214;27.906;2022-11-15T07:15:24;101332.50;;;9.00;100.00
6200;BME280;3133;43.214;27.906;2022-11-15T07:17:52;101341.09;;;8.95;100.00
6200;BME280;3133;43.214;27.906;2022-11-15T07:23:42;101328.56;;;9.19;100.00
6200;BME280;3133;43.214;27.906;2022-11-15T07:26:10;101333.19;;;9.35;100.00
6200;BME280;3133;43.214;27.906;2022-11-15T07:31:59;101325.91;;;9.65;100.00
6200;BME280;3133;43.214;27.906;2022-11-15T07:37:53;101328.00;;;9.87;100.00
6200;BME280;3133;43.214;27.906;2022-11-15T07:40:22;101319.25;;;9.84;100.00
6200;BME280;3133;43.214;27.906;2022-11-15T07:46:11;101326.84;;;9.70;100.00
6200;BME280;3133;43.214;27.906;2022-11-15T07:52:00;101319.16;;;9.78;100.00
6200;BME280;3133;43.214;27.906;2022-11-15T07:54:27;101330.19;;;9.63;100.00
6200;BME280;3133;43.214;27.906;2022-11-15T08:00:18;101321.03;;;9.86;100.00
6200;BME280;3133;43.214;27.906;2022-11-15T08:12:57;101326.72;;;9.64;100.00
6200;BME280;3133;43.214;27.906;2022-11-15T08:15:25;101331.16;;;9.68;100.00
6200;BME280;3133;43.214;27.906;2022-11-15T08:21:18;101325.91;;;9.67;100.00
6200;BME280;3133;43.214;27.906;2022-11-15T08:23:46;101329.41;;;9.67;100.00
6200;BME280;3133;43.214;27.906;2022-11-15T08:36:04;101314.81;;;9.77;100.00
6200;BME280;3133;43.214;27.906;2022-11-15T08:38:31;101314.94;;;9.86;100.00
6200;BME280;3133;43.214;27.906;2022-11-15T08:44:19;101299.75;;;10.13;100.00
6200;BME280;3133;43.214;27.906;2022-11-15T08:50:08;101299.88;;;10.22;100.00
6200;BME280;3133;43.214;27.906;2022-11-15T08:55:58;101290.41;;;10.29;100.00
6200;BME280;3133;43.214;27.906;2022-11-15T08:58:25;101281.88;;;10.40;100.00
6200;BME280;3133;43.214;27.906;2022-11-15T09:04:14;101274.25;;;10.55;100.00
6200;BME280;3133;43.214;27.906;2022-11-15T09:06:46;101273.47;;;10.64;100.00
6200;BME280;3133;43.214;27.906;2022-11-15T09:12:36;101277.03;;;10.69;100.00
6200;BME280;3133;43.214;27.906;2022-11-15T09:15:03;101268.44;;;10.79;100.00
6200;BME280;3133;43.214;27.906;2022-11-15T09:20:55;101256.44;;;10.95;100.00
6200;BME280;3133;43.214;27.906;2022-11-15T09:23:23;101256.50;;;10.99;100.00
6200;BME280;3133;43.214;27.906;2022-11-15T09:35:23;101252.22;;;11.06;100.00
6200;BME280;3133;43.214;27.906;2022-11-15T09:37:50;101241.75;;;11.04;100.00
6200;BME280;3133;43.214;27.906;2022-11-15T09:43:44;101239.31;;;11.22;100.00
6200;BME280;3133;43.214;27.906;2022-11-15T09:49:36;101234.22;;;11.37;100.00
6200;BME280;3133;43.214;27.906;2022-11-15T09:52:11;101232.56;;;11.48;100.00
6200;BME280;3133;43.214;27.906;2022-11-15T09:54:39;101237.81;;;11.51;100.00
6200;BME280;3133;43.214;27.906;2022-11-15T09:57:32;101090.13;;;10.71;100.00
6200;BME280;3133;43.214;27.906;2022-11-15T10:00:22;101105.84;;;10.80;100.00
6200;BME280;3133;43.214;27.906;2022-11-15T10:03:07;101077.06;;;10.71;100.00
6200;BME280;3133;43.214;27.906;2022-11-15T10:05:40;101224.06;;;11.74;100.00
6200;BME280;3133;43.214;27.906;2022-11-15T10:15:00;101158.72;;;11.71;100.00
6200;BME280;3133;43.214;27.906;2022-11-15T10:18:04;101215.63;;;12.17;100.00
6200;BME280;3133;43.214;27.906;2022-11-15T10:20:38;101133.53;;;11.79;100.00
6200;BME280;3133;43.214;27.906;2022-11-15T10:23:13;101061.06;;;11.47;100.00
6200;BME280;3133;43.214;27.906;2022-11-15T10:25:41;101159.81;;;12.13;100.00
6200;BME280;3133;43.214;27.906;2022-11-15T10:28:15;101193.84;;;12.22;100.00
6200;BME280;3133;43.214;27.906;2022-11-15T10:30:46;101137.06;;;11.85;100.00
6200;BME280;3133;43.214;27.906;2022-11-15T10:33:25;101140.34;;;11.58;100.00
6200;BME280;3133;43.214;27.906;2022-11-15T10:36:14;101184.06;;;11.82;100.00
6200;BME280;3133;43.214;27.906;2022-11-15T10:39:01;101174.41;;;11.68;100.00
6200;BME280;3133;43.214;27.906;2022-11-15T10:41:40;101174.44;;;11.72;100.00
6200;BME280;3133;43.214;27.906;2022-11-15T10:44:25;101173.44;;;11.60;100.00
6200;BME280;3133;43.214;27.906;2022-11-15T10:47:25;101150.25;;;10.89;100.00
6200;BME280;3133;43.214;27.906;2022-11-15T10:49:55;101160.16;;;11.26;100.00
6200;BME280;3133;43.214;27.906;2022-11-15T10:52:23;101171.50;;;11.34;100.00
6200;BME280;3133;43.214;27.906;2022-11-15T10:55:05;101168.06;;;11.37;100.00
6200;BME280;3133;43.214;27.906;2022-11-15T10:57:37;101044.72;;;10.52;100.00
6200;BME280;3133;43.214;27.906;2022-11-15T11:00:25;101150.44;;;11.07;100.00
6200;BME280;3133;43.214;27.906;2022-11-15T11:02:59;101148.63;;;10.97;100.00
6200;BME280;3133;43.214;27.906;2022-11-15T11:05:30;101106.72;;;10.80;100.00
6200;BME280;3133;43.214;27.906;2022-11-15T11:08:00;101120.72;;;10.89;100.00
6200;BME280;3133;43.214;27.906;2022-11-15T11:10:28;101134.72;;;11.04;100.00
6200;BME280;3133;43.214;27.906;2022-11-15T11:12:55;101095.59;;;11.01;100.00
6200;BME280;3133;43.214;27.906;2022-11-15T11:15:25;101125.44;;;11.39;100.00
6200;BME280;3133;43.214;27.906;2022-11-15T11:18:10;101120.13;;;11.27;100.00
6200;BME280;3133;43.214;27.906;2022-11-15T11:20:45;101112.41;;;11.47;100.00
6200;BME280;3133;43.214;27.906;2022-11-15T11:23:29;101073.09;;;11.21;100.00
6200;BME280;3133;43.214;27.906;2022-11-15T11:26:11;101111.34;;;11.19;100.00
6200;BME280;3133;43.214;27.906;2022-11-15T11:28:46;101092.00;;;10.90;100.00
6200;BME280;3133;43.214;27.906;2022-11-15T11:31:25;101074.66;;;10.95;100.00
6200;BME280;3133;43.214;27.906;2022-11-15T11:34:04;101082.50;;;11.00;100.00
6200;BME280;3133;43.214;27.906;2022-11-15T11:36:40;101066.81;;;10.94;100.00
6200;BME280;3133;43.214;27.906;2022-11-15T11:39:19;101049.31;;;10.79;100.00
6200;BME280;3133;43.214;27.906;2022-11-15T11:41:56;101081.66;;;11.02;100.00
6200;BME280;3133;43.214;27.906;2022-11-15T11:44:44;101008.34;;;10.67;100.00
6200;BME280;3133;43.214;27.906;2022-11-15T11:47:18;101071.25;;;11.08;100.00
6200;BME280;3133;43.214;27.906;2022-11-15T11:49:51;101079.09;;;11.07;100.00
6200;BME280;3133;43.214;27.906;2022-11-15T11:52:23;101039.75;;;10.82;100.00
6200;BME280;3133;43.214;27.906;2022-11-15T11:55:01;101072.22;;;11.21;100.00
6200;BME280;3133;43.214;27.906;2022-11-15T11:57:37;101070.53;;;11.27;100.00
6200;BME280;3133;43.214;27.906;2022-11-15T12:00:15;101060.84;;;11.11;100.00
6200;BME280;3133;43.214;27.906;2022-11-15T12:02:48;101033.91;;;11.12;100.00
6200;BME280;3133;43.214;27.906;2022-11-15T12:05:25;101010.25;;;10.91;100.00
6200;BME280;3133;43.214;27.906;2022-11-15T12:07:58;101035.47;;;10.89;100.00
6200;BME280;3133;43.214;27.906;2022-11-15T12:10:30;101042.53;;;11.04;100.00
6200;BME280;3133;43.214;27.906;2022-11-15T12:13:02;101053.09;;;11.22;100.00
6200;BME280;3133;43.214;27.906;2022-11-15T12:15:36;101046.13;;;11.24;100.00
6200;BME280;3133;43.214;27.906;2022-11-15T12:18:11;101017.41;;;11.22;100.00
6200;BME280;3133;43.214;27.906;2022-11-15T12:20:47;101041.00;;;11.45;100.00
6200;BME280;3133;43.214;27.906;2022-11-15T12:23:21;101003.44;;;11.19;100.00
6200;BME280;3133;43.214;27.906;2022-11-15T12:25:53;101043.59;;;11.40;100.00
6200;BME280;3133;43.214;27.906;2022-11-15T12:28:30;100932.75;;;10.70;100.00
6200;BME280;3133;43.214;27.906;2022-11-15T12:31:03;101033.75;;;10.94;100.00
6200;BME280;3133;43.214;27.906;2022-11-15T12:33:34;100991.94;;;10.85;100.00
6200;BME280;3133;43.214;27.906;2022-11-15T12:36:09;100967.66;;;10.91;100.00
6200;BME280;3133;43.214;27.906;2022-11-15T12:38:54;100929.38;;;10.91;100.00
6200;BME280;3133;43.214;27.906;2022-11-15T12:41:23;101002.72;;;11.45;100.00
6200;BME280;3133;43.214;27.906;2022-11-15T12:43:50;101021.00;;;11.45;100.00
6200;BME280;3133;43.214;27.906;2022-11-15T12:46:58;100884.91;;;10.70;100.00
6200;BME280;3133;43.214;27.906;2022-11-15T12:49:44;101007.81;;;11.20;100.00
6200;BME280;3133;43.214;27.906;2022-11-15T12:52:14;101009.59;;;11.27;100.00
6200;BME280;3133;43.214;27.906;2022-11-15T12:55:02;101009.56;;;11.19;100.00
6200;BME280;3133;43.214;27.906;2022-11-15T12:57:48;100964.06;;;10.76;100.00
6200;BME280;3133;43.214;27.906;2022-11-15T13:00:43;100909.19;;;10.54;100.00
6200;BME280;3133;43.214;27.906;2022-11-15T13:03:24;100970.44;;;11.21;100.00
6200;BME280;3133;43.214;27.906;2022-11-15T13:06:04;100897.22;;;10.95;100.00
6200;BME280;3133;43.214;27.906;2022-11-15T13:08:45;100994.03;;;11.51;100.00
6200;BME280;3133;43.214;27.906;2022-11-15T13:11:47;100917.28;;;11.11;100.00
6200;BME280;3133;43.214;27.906;2022-11-15T13:14:42;100989.66;;;11.44;100.00
6200;BME280;3133;43.214;27.906;2022-11-15T13:17:39;100987.97;;;11.56;100.00
6200;BME280;3133;43.214;27.906;2022-11-15T13:20:21;100993.16;;;11.44;100.00
6200;BME280;3133;43.214;27.906;2022-11-15T13:23:00;100878.09;;;10.95;100.00
6200;BME280;3133;43.214;27.906;2022-11-15T13:25:46;100885.13;;;11.12;100.00
6200;BME280;3133;43.214;27.906;2022-11-15T13:28:36;100947.91;;;11.54;100.00
6200;BME280;3133;43.214;27.906;2022-11-15T13:31:26;100860.72;;;11.09;100.00
6200;BME280;3133;43.214;27.906;2022-11-15T13:34:02;100936.53;;;11.40;100.00
6200;BME280;3133;43.214;27.906;2022-11-15T13:36:57;100723.03;;;10.16;100.00
6200;BME280;3133;43.214;27.906;2022-11-15T13:39:34;100967.09;;;11.61;100.00
6200;BME280;3133;43.214;27.906;2022-11-15T13:42:16;100962.69;;;11.46;100.00
6200;BME280;3133;43.214;27.906;2022-11-15T13:44:55;100960.88;;;11.32;100.00
6200;BME280;3133;43.214;27.906;2022-11-15T13:47:56;100909.28;;;10.75;100.00
6200;BME280;3133;43.214;27.906;2022-11-15T13:50:42;100880.56;;;10.63;100.00
6200;BME280;3133;43.214;27.906;2022-11-15T13:53:37;100952.16;;;11.22;100.00
6200;BME280;3133;43.214;27.906;2022-11-15T13:56:15;100943.41;;;11.14;100.00
6200;BME280;3133;43.214;27.906;2022-11-15T13:58:48;100911.19;;;11.03;100.00
6200;BME280;3133;43.214;27.906;2022-11-15T14:01:29;100958.28;;;11.27;100.00
6200;BME280;3133;43.214;27.906;2022-11-15T14:04:09;100953.91;;;11.32;100.00
6200;BME280;3133;43.214;27.906;2022-11-15T14:06:44;100948.75;;;11.41;100.00
6200;BME280;3133;43.214;27.906;2022-11-15T14:09:34;100861.53;;;10.90;100.00
6200;BME280;3133;43.214;27.906;2022-11-15T14:12:51;100810.06;;;10.52;100.00
6200;BME280;3133;43.214;27.906;2022-11-15T14:15:39;100822.28;;;10.65;100.00
6200;BME280;3133;43.214;27.906;2022-11-15T14:21:06;100925.19;;;11.32;100.00
6200;BME280;3133;43.214;27.906;2022-11-15T14:23:33;100922.56;;;11.25;100.00
6200;BME280;3133;43.214;27.906;2022-11-15T14:26:02;100921.69;;;11.26;100.00
6200;BME280;3133;43.214;27.906;2022-11-15T14:28:41;100879.88;;;11.05;100.00
6200;BME280;3133;43.214;27.906;2022-11-15T14:31:24;100906.03;;;11.18;100.00
6200;BME280;3133;43.214;27.906;2022-11-15T14:33:54;100887.69;;;11.06;100.00
6200;BME280;3133;43.214;27.906;2022-11-15T14:36:22;100858.91;;;10.87;100.00
6200;BME280;3133;43.214;27.906;2022-11-15T14:39:22;100898.13;;;11.06;100.00
6200;BME280;3133;43.214;27.906;2022-11-15T14:42:24;100758.72;;;10.32;100.00
6200;BME280;3133;43.214;27.906;2022-11-15T14:45:11;100838.00;;;10.76;100.00
6200;BME280;3133;43.214;27.906;2022-11-15T14:47:45;100849.31;;;10.75;100.00
6200;BME280;3133;43.214;27.906;2022-11-15T14:50:15;100834.53;;;10.77;100.00
6200;BME280;3133;43.214;27.906;2022-11-15T14:52:47;100884.22;;;11.07;100.00
6200;BME280;3133;43.214;27.906;2022-11-15T14:55:29;100879.88;;;11.09;100.00
6200;BME280;3133;43.214;27.906;2022-11-15T14:58:21;100877.28;;;11.08;100.00
6200;BME280;3133;43.214;27.906;2022-11-15T15:00:50;100884.19;;;11.00;100.00
6200;BME280;3133;43.214;27.906;2022-11-15T15:03:19;100887.63;;;10.91;100.00
6200;BME280;3133;43.214;27.906;2022-11-15T15:05:50;100859.81;;;10.89;100.00
6200;BME280;3133;43.214;27.906;2022-11-15T15:08:31;100859.81;;;10.89;100.00
6200;BME280;3133;43.214;27.906;2022-11-15T15:11:08;100884.22;;;11.01;100.00
6200;BME280;3133;43.214;27.906;2022-11-15T15:13:38;100882.47;;;11.05;100.00
6200;BME280;3133;43.214;27.906;2022-11-15T15:16:07;100852.00;;;10.95;100.00
6200;BME280;3133;43.214;27.906;2022-11-15T15:18:54;100840.66;;;10.90;100.00
6200;BME280;3133;43.214;27.906;2022-11-15T15:21:41;100785.66;;;10.31;100.00
6200;BME280;3133;43.214;27.906;2022-11-15T15:24:14;100872.00;;;10.99;100.00
6200;BME280;3133;43.214;27.906;2022-11-15T15:30:06;100857.19;;;10.93;100.00
6200;BME280;3133;43.214;27.906;2022-11-15T15:32:51;100820.63;;;10.75;100.00
6200;BME280;3133;43.214;27.906;2022-11-15T15:42:09;100750.03;;;10.34;100.00
6200;BME280;3133;43.214;27.906;2022-11-15T15:45:16;100864.19;;;11.02;100.00
6200;BME280;3133;43.214;27.906;2022-11-15T15:47:45;100813.63;;;10.69;100.00
6200;BME280;3133;43.214;27.906;2022-11-15T15:50:21;100828.50;;;10.89;100.00
6200;BME280;3133;43.214;27.906;2022-11-15T15:52:49;100833.72;;;10.98;100.00
6200;BME280;3133;43.214;27.906;2022-11-15T15:55:16;100845.06;;;11.10;100.00
6200;BME280;3133;43.214;27.906;2022-11-15T15:57:45;100853.81;;;11.12;100.00
6200;BME280;3133;43.214;27.906;2022-11-15T16:00:15;100708.31;;;10.31;100.00
6200;BME280;3133;43.214;27.906;2022-11-15T16:02:43;100803.25;;;10.89;100.00
6200;BME280;3133;43.214;27.906;2022-11-15T16:05:11;100848.59;;;11.18;100.00
6200;BME280;3133;43.214;27.906;2022-11-15T16:07:39;100762.34;;;10.73;100.00
6200;BME280;3133;43.214;27.906;2022-11-15T16:10:22;100792.84;;;10.92;100.00
6200;BME280;3133;43.214;27.906;2022-11-15T16:12:51;100829.47;;;11.21;100.00
6200;BME280;3133;43.214;27.906;2022-11-15T16:15:19;100841.66;;;11.25;100.00
6200;BME280;3133;43.214;27.906;2022-11-15T16:17:49;100740.56;;;10.63;100.00
6200;BME280;3133;43.214;27.906;2022-11-15T16:20:30;100801.53;;;10.94;100.00
6200;BME280;3133;43.214;27.906;2022-11-15T16:23:25;100829.44;;;11.06;100.00
6200;BME280;3133;43.214;27.906;2022-11-15T16:26:21;100810.13;;;10.66;100.00
6200;BME280;3133;43.214;27.906;2022-11-15T16:28:54;100784.13;;;10.79;100.00
6200;BME280;3133;43.214;27.906;2022-11-15T16:31:27;100730.91;;;10.26;100.00
6200;BME280;3133;43.214;27.906;2022-11-15T16:34:22;100805.72;;;10.53;100.00
6200;BME280;3133;43.214;27.906;2022-11-15T16:37:08;100782.31;;;10.68;100.00
6200;BME280;3133;43.214;27.906;2022-11-15T16:39:49;100823.16;;;10.61;100.00
6200;BME280;3133;43.214;27.906;2022-11-15T16:42:30;100827.50;;;10.58;100.00
6200;BME280;3133;43.214;27.906;2022-11-15T16:45:10;100824.81;;;10.44;100.00
6200;BME280;3133;43.214;27.906;2022-11-15T16:48:21;100816.94;;;10.31;100.00
6200;BME280;3133;43.214;27.906;2022-11-15T16:50:50;100771.66;;;10.18;100.00
6200;BME280;3133;43.214;27.906;2022-11-15T16:53:22;100788.94;;;10.09;100.00
6200;BME280;3133;43.214;27.906;2022-11-15T16:55:53;100783.03;;;10.34;100.00
6200;BME280;3133;43.214;27.906;2022-11-15T16:58:21;100787.50;;;10.63;100.00
6200;BME280;3133;43.214;27.906;2022-11-15T17:00:52;100735.31;;;10.48;100.00
6200;BME280;3133;43.214;27.906;2022-11-15T17:03:19;100763.09;;;10.42;100.00
6200;BME280;3133;43.214;27.906;2022-11-15T17:05:46;100750.78;;;10.14;100.00
6200;BME280;3133;43.214;27.906;2022-11-15T17:08:14;100808.22;;;10.33;100.00
6200;BME280;3133;43.214;27.906;2022-11-15T17:10:44;100809.19;;;10.47;100.00
6200;BME280;3133;43.214;27.906;2022-11-15T17:13:34;100811.75;;;10.46;100.00
6200;BME280;3133;43.214;27.906;2022-11-15T17:16:08;100764.75;;;10.25;100.00
6200;BME280;3133;43.214;27.906;2022-11-15T17:18:36;100730.66;;;9.91;100.00
6200;BME280;3133;43.214;27.906;2022-11-15T17:21:07;100805.69;;;10.47;100.00
6200;BME280;3133;43.214;27.906;2022-11-15T17:23:50;100761.13;;;10.04;100.00
6200;BME280;3133;43.214;27.906;2022-11-15T17:26:17;100790.81;;;10.22;100.00
6200;BME280;3133;43.214;27.906;2022-11-15T17:28:44;100698.41;;;9.68;100.00
6200;BME280;3133;43.214;27.906;2022-11-15T17:31:14;100631.53;;;9.64;100.00
6200;BME280;3133;43.214;27.906;2022-11-15T17:33:41;100779.75;;;10.78;100.00
6200;BME280;3133;43.214;27.906;2022-11-15T17:36:13;100695.34;;;10.43;100.00
6200;BME280;3133;43.214;27.906;2022-11-15T17:38:48;100743.25;;;10.83;100.00
6200;BME280;3133;43.214;27.906;2022-11-15T17:41:18;100778.03;;;10.91;100.00
6200;BME280;3133;43.214;27.906;2022-11-15T17:43:46;100774.59;;;10.95;100.00
6200;BME280;3133;43.214;27.906;2022-11-15T17:46:24;100749.34;;;10.90;100.00
6200;BME280;3133;43.214;27.906;2022-11-15T17:52:10;100765.75;;;10.54;100.00
6200;BME280;3133;43.214;27.906;2022-11-15T17:54:37;100761.53;;;10.88;100.00
6200;BME280;3133;43.214;27.906;2022-11-15T18:07:05;100751.94;;;10.91;100.00
6200;BME280;3133;43.214;27.906;2022-11-15T18:09:38;100745.88;;;10.91;100.00
6200;BME280;3133;43.214;27.906;2022-11-15T18:15:29;100736.22;;;10.52;100.00
6200;BME280;3133;43.214;27.906;2022-11-15T18:21:19;100746.59;;;10.44;100.00
6200;BME280;3133;43.214;27.906;2022-11-15T18:24:25;100746.31;;;9.99;100.00
6200;BME280;3133;43.214;27.906;2022-11-15T18:36:58;100740.03;;;9.67;100.00
6200;BME280;3133;43.214;27.906;2022-11-15T18:39:33;100699.13;;;9.49;100.00
6200;BME280;3133;43.214;27.906;2022-11-15T18:45:22;100732.97;;;9.48;100.00
6200;BME280;3133;43.214;27.906;2022-11-15T18:47:49;100736.34;;;9.41;100.00
6200;BME280;3133;43.214;27.906;2022-11-15T18:57:00;100728.41;;;9.21;100.00
6200;BME280;3133;43.214;27.906;2022-11-15T18:59:28;100719.63;;;9.11;100.00
6200;BME280;3133;43.214;27.906;2022-11-15T19:01:54;100722.19;;;9.08;100.00
6200;BME280;3133;43.214;27.906;2022-11-15T19:04:31;100725.78;;;9.19;100.00
6200;BME280;3133;43.214;27.906;2022-11-15T19:10:19;100719.63;;;9.11;100.00
6200;BME280;3133;43.214;27.906;2022-11-15T19:12:48;100721.34;;;9.09;100.00